SBI6757 USSS-URWW
Flight info
| Callsign | SBI6757 |
|---|---|
| Flight time | N/A |
| Altitude | 36000 |
| Route | MIKUS6K MIKUS T764 GITEK T691 UROBO R807 RODUN RODUN1J |
| Aircraft | B738/M-SDE2E3FGHIRWXY/LB1 |
Departure
| Time | 2026-05-01 13:57 |
|---|---|
| Airport | Koltsovo Airport (USSS) |
Arrival
| Time | N/A |
|---|---|
| Airport | Volgograd International Airport (URWW) |
| Time | Latitude | Longitude | Altitude | Speed | Heading |
|---|---|---|---|---|---|
| 2026-05-01 13:33 | 56.74938 | 60.80497 | 777 ft | 0 kts | 359° |
| 2026-05-01 13:46 | 56.74914 | 60.80497 | 777 ft | 4 kts | 359° |
| 2026-05-01 13:46 | 56.74890 | 60.80498 | 777 ft | 4 kts | 359° |
| 2026-05-01 13:46 | 56.74867 | 60.80492 | 777 ft | 4 kts | 36° |
| 2026-05-01 13:47 | 56.74855 | 60.80456 | 777 ft | 4 kts | 84° |
| 2026-05-01 13:47 | 56.74854 | 60.80434 | 777 ft | 1 kts | 90° |
| 2026-05-01 13:51 | 56.74853 | 60.80461 | 777 ft | 6 kts | 95° |
| 2026-05-01 13:51 | 56.74851 | 60.80621 | 777 ft | 20 kts | 92° |
| 2026-05-01 13:52 | 56.74851 | 60.80912 | 777 ft | 23 kts | 90° |
| 2026-05-01 13:52 | 56.74863 | 60.81195 | 777 ft | 22 kts | 90° |
| 2026-05-01 13:52 | 56.74862 | 60.81471 | 777 ft | 22 kts | 90° |
| 2026-05-01 13:52 | 56.74861 | 60.81741 | 777 ft | 21 kts | 91° |
| 2026-05-01 13:53 | 56.74824 | 60.81989 | 777 ft | 20 kts | 120° |
| 2026-05-01 13:53 | 56.74606 | 60.82202 | 777 ft | 26 kts | 179° |
| 2026-05-01 13:53 | 56.74419 | 60.82193 | 778 ft | 26 kts | 184° |
| 2026-05-01 13:54 | 56.74243 | 60.82170 | 776 ft | 25 kts | 184° |
| 2026-05-01 13:54 | 56.74098 | 60.82160 | 771 ft | 16 kts | 168° |
| 2026-05-01 13:54 | 56.74058 | 60.82276 | 770 ft | 12 kts | 97° |
| 2026-05-01 13:54 | 56.74047 | 60.82528 | 773 ft | 27 kts | 94° |
| 2026-05-01 13:55 | 56.74074 | 60.82812 | 774 ft | 15 kts | 90° |
| 2026-05-01 13:55 | 56.74037 | 60.82861 | 774 ft | 5 kts | 208° |
| 2026-05-01 13:55 | 56.74036 | 60.82793 | 774 ft | 8 kts | 280° |
| 2026-05-01 13:55 | 56.74038 | 60.82760 | 774 ft | 0 kts | 274° |
| 2026-05-01 13:56 | 56.74042 | 60.82654 | 774 ft | 35 kts | 274° |
| 2026-05-01 13:56 | 56.74080 | 60.81735 | 772 ft | 108 kts | 274° |
| 2026-05-01 13:56 | 56.74153 | 60.79987 | 777 ft | 167 kts | 276° |
| 2026-05-01 13:57 | 56.74245 | 60.77742 | 1380 ft | 182 kts | 275° |
| 2026-05-01 13:57 | 56.74276 | 60.76189 | 1990 ft | 187 kts | 274° |
| 2026-05-01 13:57 | 56.74313 | 60.72916 | 2967 ft | 205 kts | 275° |
| 2026-05-01 13:57 | 56.74343 | 60.70172 | 3194 ft | 228 kts | 275° |
| 2026-05-01 13:58 | 56.74378 | 60.67166 | 3462 ft | 249 kts | 275° |
| 2026-05-01 13:58 | 56.74415 | 60.63918 | 3997 ft | 261 kts | 275° |
| 2026-05-01 13:58 | 56.74452 | 60.60588 | 4858 ft | 263 kts | 275° |
| 2026-05-01 13:58 | 56.74488 | 60.57260 | 5757 ft | 263 kts | 276° |
| 2026-05-01 13:59 | 56.74417 | 60.53903 | 6568 ft | 271 kts | 262° |
| 2026-05-01 13:59 | 56.73589 | 60.50753 | 7288 ft | 285 kts | 233° |
| 2026-05-01 13:59 | 56.72068 | 60.48385 | 7803 ft | 293 kts | 213° |
| 2026-05-01 13:59 | 56.70278 | 60.46609 | 7878 ft | 294 kts | 209° |
| 2026-05-01 14:00 | 56.68443 | 60.44952 | 7891 ft | 295 kts | 208° |
| 2026-05-01 14:00 | 56.66600 | 60.43312 | 7890 ft | 295 kts | 208° |
| 2026-05-01 14:00 | 56.64761 | 60.41666 | 7896 ft | 295 kts | 208° |
| 2026-05-01 14:00 | 56.62924 | 60.40008 | 7898 ft | 295 kts | 208° |
| 2026-05-01 14:01 | 56.61086 | 60.38339 | 7893 ft | 295 kts | 208° |
| 2026-05-01 14:01 | 56.59308 | 60.36718 | 7897 ft | 295 kts | 208° |
| 2026-05-01 14:01 | 56.57611 | 60.35169 | 7891 ft | 295 kts | 208° |
| 2026-05-01 14:01 | 56.55904 | 60.33607 | 7902 ft | 294 kts | 208° |
| 2026-05-01 14:02 | 56.54090 | 60.31949 | 7904 ft | 294 kts | 208° |
| 2026-05-01 14:02 | 56.52265 | 60.30280 | 7899 ft | 294 kts | 208° |
| 2026-05-01 14:02 | 56.50442 | 60.28614 | 7912 ft | 293 kts | 208° |
| 2026-05-01 14:02 | 56.48621 | 60.26951 | 7903 ft | 294 kts | 208° |
| 2026-05-01 14:03 | 56.46794 | 60.25284 | 7905 ft | 294 kts | 208° |
| 2026-05-01 14:03 | 56.44970 | 60.23622 | 7898 ft | 294 kts | 208° |
| 2026-05-01 14:03 | 56.43142 | 60.21960 | 7903 ft | 294 kts | 208° |
| 2026-05-01 14:03 | 56.41318 | 60.20303 | 7908 ft | 293 kts | 209° |
| 2026-05-01 14:04 | 56.39634 | 60.18273 | 7931 ft | 292 kts | 225° |
| 2026-05-01 14:04 | 56.38171 | 60.15698 | 8511 ft | 295 kts | 227° |
| 2026-05-01 14:04 | 56.36719 | 60.13098 | 9424 ft | 293 kts | 227° |
| 2026-05-01 14:04 | 56.35756 | 60.11381 | 9957 ft | 294 kts | 227° |
| 2026-05-01 14:05 | 56.33745 | 60.07809 | 10472 ft | 318 kts | 226° |
| 2026-05-01 14:05 | 56.32112 | 60.04928 | 10651 ft | 340 kts | 226° |
| 2026-05-01 14:05 | 56.30366 | 60.01864 | 10843 ft | 360 kts | 226° |
| 2026-05-01 14:05 | 56.28534 | 59.98669 | 11271 ft | 371 kts | 225° |
| 2026-05-01 14:06 | 56.26667 | 59.95423 | 11941 ft | 374 kts | 225° |
| 2026-05-01 14:06 | 56.24793 | 59.92176 | 12719 ft | 375 kts | 225° |
| 2026-05-01 14:06 | 56.22904 | 59.88906 | 13437 ft | 378 kts | 224° |
| 2026-05-01 14:06 | 56.20999 | 59.85612 | 14033 ft | 382 kts | 224° |
| 2026-05-01 14:07 | 56.19079 | 59.82298 | 14701 ft | 383 kts | 224° |
| 2026-05-01 14:07 | 56.17157 | 59.78984 | 15372 ft | 384 kts | 225° |
| 2026-05-01 14:07 | 56.15228 | 59.75660 | 15991 ft | 386 kts | 225° |
| 2026-05-01 14:08 | 56.11320 | 59.68943 | 17176 ft | 392 kts | 225° |
| 2026-05-01 14:08 | 56.09345 | 59.65553 | 17765 ft | 395 kts | 225° |
| 2026-05-01 14:08 | 56.07351 | 59.62139 | 18327 ft | 398 kts | 224° |
| 2026-05-01 14:08 | 56.05364 | 59.58673 | 18825 ft | 400 kts | 229° |
| 2026-05-01 14:09 | 56.03830 | 59.54532 | 19302 ft | 402 kts | 243° |
| 2026-05-01 14:09 | 56.02582 | 59.50053 | 19810 ft | 404 kts | 243° |
| 2026-05-01 14:09 | 56.01642 | 59.46735 | 20155 ft | 407 kts | 243° |
| 2026-05-01 14:11 | 55.94014 | 59.20685 | 22751 ft | 422 kts | 241° |
| 2026-05-01 14:11 | 55.91251 | 59.11373 | 23574 ft | 427 kts | 240° |
| 2026-05-01 14:11 | 55.89856 | 59.06684 | 23936 ft | 429 kts | 240° |
| 2026-05-01 14:12 | 55.88456 | 59.01986 | 24300 ft | 431 kts | 240° |
| 2026-05-01 14:12 | 55.87047 | 58.97268 | 24652 ft | 433 kts | 240° |
| 2026-05-01 14:12 | 55.85628 | 58.92524 | 24988 ft | 434 kts | 240° |
| 2026-05-01 14:12 | 55.84204 | 58.87774 | 25336 ft | 436 kts | 240° |
| 2026-05-01 14:13 | 55.82772 | 58.83002 | 25676 ft | 438 kts | 240° |
| 2026-05-01 14:13 | 55.81333 | 58.78220 | 25984 ft | 440 kts | 239° |
| 2026-05-01 14:13 | 55.79883 | 58.73415 | 26292 ft | 442 kts | 239° |
| 2026-05-01 14:13 | 55.78426 | 58.68601 | 26595 ft | 443 kts | 239° |
| 2026-05-01 14:14 | 55.76958 | 58.63764 | 26908 ft | 445 kts | 239° |
| 2026-05-01 14:14 | 55.75483 | 58.58912 | 27190 ft | 447 kts | 239° |
| 2026-05-01 14:14 | 55.74004 | 58.54051 | 27483 ft | 449 kts | 239° |
| 2026-05-01 14:14 | 55.72517 | 58.49174 | 27755 ft | 451 kts | 239° |
| 2026-05-01 14:15 | 55.71019 | 58.44271 | 28015 ft | 452 kts | 239° |
| 2026-05-01 14:15 | 55.69518 | 58.39366 | 28371 ft | 452 kts | 239° |
| 2026-05-01 14:15 | 55.68040 | 58.34546 | 28802 ft | 450 kts | 239° |
| 2026-05-01 14:15 | 55.66545 | 58.29677 | 29245 ft | 448 kts | 239° |
| 2026-05-01 14:16 | 55.65052 | 58.24828 | 29616 ft | 448 kts | 238° |
| 2026-05-01 14:16 | 55.63560 | 58.19995 | 29953 ft | 448 kts | 238° |
| 2026-05-01 14:16 | 55.62066 | 58.15163 | 30267 ft | 447 kts | 238° |
| 2026-05-01 14:16 | 55.60575 | 58.10348 | 30604 ft | 445 kts | 239° |
| 2026-05-01 14:17 | 55.59090 | 58.05559 | 30920 ft | 444 kts | 239° |
| 2026-05-01 14:17 | 55.57605 | 58.00783 | 31208 ft | 443 kts | 239° |
| 2026-05-01 14:17 | 55.56119 | 57.96015 | 31493 ft | 443 kts | 239° |
| 2026-05-01 14:17 | 55.54630 | 57.91261 | 31782 ft | 442 kts | 239° |
| 2026-05-01 14:18 | 55.53142 | 57.86532 | 32093 ft | 440 kts | 239° |
| 2026-05-01 14:18 | 55.51653 | 57.81812 | 32385 ft | 439 kts | 239° |
| 2026-05-01 14:18 | 55.50166 | 57.77108 | 32660 ft | 439 kts | 239° |
| 2026-05-01 14:18 | 55.49184 | 57.74003 | 32838 ft | 438 kts | 239° |
| 2026-05-01 14:19 | 55.47197 | 57.67732 | 33218 ft | 437 kts | 239° |
| 2026-05-01 14:19 | 55.45717 | 57.63071 | 33500 ft | 436 kts | 239° |
| 2026-05-01 14:19 | 55.44235 | 57.58411 | 33747 ft | 435 kts | 239° |
| 2026-05-01 14:19 | 55.42754 | 57.53763 | 33992 ft | 435 kts | 239° |
| 2026-05-01 14:20 | 55.41273 | 57.49125 | 34181 ft | 435 kts | 239° |
| 2026-05-01 14:20 | 55.38306 | 57.39858 | 34535 ft | 435 kts | 239° |
| 2026-05-01 14:20 | 55.36820 | 57.35229 | 34716 ft | 435 kts | 239° |
| 2026-05-01 14:21 | 55.35332 | 57.30604 | 34895 ft | 435 kts | 239° |
| 2026-05-01 14:21 | 55.33843 | 57.25980 | 35081 ft | 434 kts | 239° |
| 2026-05-01 14:21 | 55.32376 | 57.21432 | 35267 ft | 434 kts | 239° |
| 2026-05-01 14:22 | 55.29395 | 57.12226 | 35591 ft | 434 kts | 239° |
| 2026-05-01 14:22 | 55.27903 | 57.07624 | 35761 ft | 434 kts | 239° |
| 2026-05-01 14:22 | 55.26649 | 57.03758 | 35906 ft | 434 kts | 239° |
| 2026-05-01 14:22 | 55.25150 | 56.99140 | 35912 ft | 410 kts | 239° |
| 2026-05-01 14:23 | 55.22324 | 56.90460 | 35944 ft | 413 kts | 239° |
| 2026-05-01 14:23 | 55.19446 | 56.81656 | 35944 ft | 420 kts | 239° |
| 2026-05-01 14:24 | 55.16519 | 56.72732 | 35939 ft | 426 kts | 239° |
| 2026-05-01 14:24 | 55.13546 | 56.63697 | 35937 ft | 432 kts | 239° |
| 2026-05-01 14:25 | 55.10529 | 56.54560 | 35935 ft | 436 kts | 239° |
| 2026-05-01 14:25 | 55.07476 | 56.45358 | 35931 ft | 439 kts | 239° |
| 2026-05-01 14:26 | 55.02860 | 56.31498 | 35913 ft | 439 kts | 239° |
| 2026-05-01 14:27 | 54.99817 | 56.22400 | 35910 ft | 431 kts | 239° |
| 2026-05-01 14:27 | 54.96799 | 56.13407 | 35921 ft | 430 kts | 239° |
| 2026-05-01 14:28 | 54.92265 | 55.99958 | 35916 ft | 430 kts | 239° |
| 2026-05-01 14:28 | 54.89233 | 55.91002 | 35919 ft | 430 kts | 239° |
| 2026-05-01 14:29 | 54.86189 | 55.82061 | 35921 ft | 431 kts | 239° |
| 2026-05-01 14:30 | 54.80055 | 55.64173 | 35924 ft | 433 kts | 239° |
| 2026-05-01 14:31 | 54.75421 | 55.50731 | 35927 ft | 434 kts | 239° |
| 2026-05-01 14:31 | 54.72339 | 55.41831 | 35924 ft | 434 kts | 239° |
| 2026-05-01 14:32 | 54.69229 | 55.32878 | 35929 ft | 434 kts | 239° |
| 2026-05-01 14:32 | 54.66112 | 55.23939 | 35925 ft | 435 kts | 239° |
| 2026-05-01 14:33 | 54.62984 | 55.15006 | 35926 ft | 434 kts | 239° |
| 2026-05-01 14:33 | 54.59856 | 55.06096 | 35930 ft | 434 kts | 239° |
| 2026-05-01 14:34 | 54.56725 | 54.97206 | 35937 ft | 433 kts | 239° |
| 2026-05-01 14:34 | 54.53591 | 54.88344 | 35936 ft | 433 kts | 239° |
| 2026-05-01 14:35 | 54.50457 | 54.79513 | 35942 ft | 432 kts | 239° |
| 2026-05-01 14:35 | 54.47322 | 54.70706 | 35947 ft | 431 kts | 239° |
| 2026-05-01 14:36 | 54.44186 | 54.61923 | 35948 ft | 431 kts | 239° |
| 2026-05-01 14:36 | 54.41048 | 54.53163 | 35955 ft | 430 kts | 239° |
| 2026-05-01 14:37 | 54.37907 | 54.44428 | 35958 ft | 430 kts | 239° |
| 2026-05-01 14:37 | 54.34759 | 54.35716 | 35962 ft | 430 kts | 239° |
| 2026-05-01 14:38 | 54.31705 | 54.27292 | 35966 ft | 430 kts | 239° |
| 2026-05-01 14:38 | 54.28568 | 54.18666 | 35964 ft | 430 kts | 238° |
| 2026-05-01 14:39 | 54.25600 | 54.10531 | 35976 ft | 431 kts | 238° |
| 2026-05-01 14:39 | 54.22385 | 54.01747 | 35980 ft | 431 kts | 238° |
| 2026-05-01 14:40 | 54.19201 | 53.93077 | 35980 ft | 431 kts | 238° |
| 2026-05-01 14:40 | 54.16007 | 53.84411 | 35980 ft | 431 kts | 238° |
| 2026-05-01 14:41 | 54.12806 | 53.75755 | 35989 ft | 431 kts | 238° |
| 2026-05-01 14:41 | 54.09598 | 53.67104 | 35979 ft | 432 kts | 238° |
| 2026-05-01 14:42 | 54.06402 | 53.58524 | 35985 ft | 432 kts | 238° |
| 2026-05-01 14:42 | 54.03176 | 53.49907 | 35991 ft | 431 kts | 238° |
| 2026-05-01 14:43 | 53.99949 | 53.41313 | 35987 ft | 431 kts | 238° |
| 2026-05-01 14:43 | 53.96720 | 53.32737 | 35993 ft | 431 kts | 238° |
| 2026-05-01 14:44 | 53.93486 | 53.24177 | 35995 ft | 430 kts | 238° |
| 2026-05-01 14:44 | 53.88634 | 53.11386 | 36003 ft | 430 kts | 238° |
| 2026-05-01 14:45 | 53.83774 | 52.98635 | 35998 ft | 429 kts | 238° |
| 2026-05-01 14:46 | 53.80490 | 52.90205 | 35999 ft | 429 kts | 237° |
| 2026-05-01 14:46 | 53.75452 | 52.77708 | 36006 ft | 428 kts | 237° |
| 2026-05-01 14:47 | 53.72093 | 52.69394 | 36004 ft | 428 kts | 237° |
| 2026-05-01 14:48 | 53.67061 | 52.56952 | 36005 ft | 428 kts | 237° |
| 2026-05-01 14:48 | 53.62024 | 52.44547 | 36003 ft | 427 kts | 237° |
| 2026-05-01 14:49 | 53.55294 | 52.28068 | 36006 ft | 427 kts | 236° |
| 2026-05-01 14:50 | 53.48542 | 52.11644 | 36001 ft | 427 kts | 236° |
| 2026-05-01 14:51 | 53.43459 | 51.99349 | 36008 ft | 427 kts | 236° |
| 2026-05-01 14:52 | 53.38386 | 51.87138 | 36013 ft | 428 kts | 236° |
| 2026-05-01 14:53 | 53.33275 | 51.74894 | 36006 ft | 428 kts | 236° |
| 2026-05-01 14:53 | 53.29863 | 51.66753 | 36011 ft | 428 kts | 236° |
| 2026-05-01 14:54 | 53.26442 | 51.58617 | 36007 ft | 428 kts | 236° |
| 2026-05-01 14:54 | 53.23019 | 51.50501 | 36010 ft | 428 kts | 236° |
| 2026-05-01 14:55 | 53.19590 | 51.42394 | 36011 ft | 427 kts | 236° |
| 2026-05-01 14:55 | 53.16158 | 51.34311 | 36004 ft | 427 kts | 236° |
| 2026-05-01 14:56 | 53.13303 | 51.27611 | 36006 ft | 427 kts | 236° |
| 2026-05-01 14:56 | 53.09867 | 51.19566 | 36006 ft | 426 kts | 236° |
| 2026-05-01 14:57 | 53.06433 | 51.11548 | 36012 ft | 425 kts | 236° |
| 2026-05-01 14:57 | 53.01281 | 50.99565 | 36010 ft | 424 kts | 236° |
| 2026-05-01 14:58 | 52.97843 | 50.91599 | 36008 ft | 424 kts | 236° |
| 2026-05-01 14:58 | 52.94402 | 50.83651 | 36009 ft | 424 kts | 236° |
| 2026-05-01 14:59 | 52.90961 | 50.75727 | 36009 ft | 423 kts | 236° |
| 2026-05-01 14:59 | 52.87518 | 50.67822 | 36016 ft | 423 kts | 236° |
| 2026-05-01 15:00 | 52.82346 | 50.55990 | 36022 ft | 423 kts | 236° |
| 2026-05-01 15:01 | 52.78887 | 50.48113 | 36007 ft | 423 kts | 235° |
| 2026-05-01 15:01 | 52.75418 | 50.40267 | 36015 ft | 423 kts | 235° |
| 2026-05-01 15:02 | 52.71942 | 50.32426 | 36029 ft | 423 kts | 235° |
| 2026-05-01 15:02 | 52.68463 | 50.24591 | 36037 ft | 423 kts | 235° |
| 2026-05-01 15:03 | 52.64982 | 50.16768 | 36040 ft | 423 kts | 235° |
| 2026-05-01 15:03 | 52.61496 | 50.08956 | 36040 ft | 423 kts | 235° |
| 2026-05-01 15:04 | 52.58150 | 50.01476 | 36040 ft | 423 kts | 235° |
| 2026-05-01 15:04 | 52.54592 | 49.93779 | 36044 ft | 423 kts | 232° |
| 2026-05-01 15:05 | 52.50831 | 49.86340 | 36045 ft | 423 kts | 232° |
| 2026-05-01 15:05 | 52.47090 | 49.78983 | 36056 ft | 422 kts | 232° |
| 2026-05-01 15:06 | 52.43349 | 49.71568 | 36065 ft | 422 kts | 232° |
| 2026-05-01 15:06 | 52.39616 | 49.64157 | 36068 ft | 422 kts | 232° |
| 2026-05-01 15:07 | 52.35877 | 49.56762 | 36066 ft | 421 kts | 232° |
| 2026-05-01 15:07 | 52.32142 | 49.49382 | 36070 ft | 421 kts | 232° |
| 2026-05-01 15:08 | 52.28401 | 49.42021 | 36074 ft | 421 kts | 232° |
| 2026-05-01 15:08 | 52.24655 | 49.34680 | 36085 ft | 421 kts | 232° |
| 2026-05-01 15:09 | 52.20903 | 49.27344 | 36086 ft | 421 kts | 232° |
| 2026-05-01 15:09 | 52.17155 | 49.20028 | 36089 ft | 421 kts | 232° |